Time;durP1;ratioP1;P1;durP2;ratioP2;P2;SDS_P1;SDS_P2;PMS_P1;PMS_P2;Temp;Humidity;BMP_temperature;BMP_pressure;BME280_temperature;BME280_humidity;BME280_pressure;Samples;Min_cycle;Max_cycle;Signal;HPM_P1;HPM_P2
2021/07/11 00:02:02;;;;;;;;;;;16.10;99.90;;;;;;5087765;28;19954;-49
2021/07/11 00:04:31;;;;;;;;;;;16.10;99.90;;;;;;5087053;28;19939;-51
2021/07/11 00:07:04;;;;;;;;;;;16.10;99.90;;;;;;5084873;28;19966;-49
2021/07/11 00:09:30;;;;;;;;;;;16.10;99.90;;;;;;5089946;28;20450;-52
2021/07/11 00:11:57;;;;;;;;;;;16.10;99.90;;;;;;5084852;28;20426;-59
2021/07/11 00:14:26;;;;;;;;;;;16.00;99.90;;;;;;5091592;28;19973;-48
2021/07/11 00:16:56;;;;;;;;;;;16.00;99.90;;;;;;5086714;28;19924;-50
2021/07/11 00:19:25;;;;;;;;;;;16.00;99.90;;;;;;5067322;28;19974;-50
2021/07/11 00:22:01;;;;;;;;;;;16.00;99.90;;;;;;5070711;28;19932;-53
2021/07/11 00:24:38;;;;;;;;;;;16.00;99.90;;;;;;5066312;28;19920;-50
2021/07/11 00:27:11;;;;;;;;;;;16.00;99.90;;;;;;5085292;28;20376;-50
2021/07/11 00:29:40;;;;;;;;;;;16.00;99.90;;;;;;5085153;28;20480;-53
2021/07/11 00:32:07;;;;;;;;;;;15.90;99.90;;;;;;5076901;28;20396;-51
2021/07/11 00:34:38;;;;;;;;;;;15.90;99.90;;;;;;5090283;28;20004;-50
2021/07/11 00:37:09;;;;;;;;;;;15.90;99.90;;;;;;5095169;28;20489;-53
2021/07/11 00:39:36;;;;;;;;;;;15.90;99.90;;;;;;5070621;28;20304;-53
2021/07/11 00:42:15;;;;;;;;;;;15.90;99.90;;;;;;5071341;28;19966;-47
2021/07/11 00:44:43;;;;;;;;;;;15.90;99.90;;;;;;5056219;28;20318;-48
2021/07/11 00:47:14;;;;;;;;;;;15.90;99.90;;;;;;5090351;28;19920;-47
2021/07/11 00:49:44;;;;;;;;;;;15.80;99.90;;;;;;5089271;28;20124;-50
2021/07/11 00:52:14;;;;;;;;;;;15.80;99.90;;;;;;5090753;28;20305;-52
2021/07/11 00:54:46;;;;;;;;;;;15.80;99.90;;;;;;5072377;28;19924;-60
2021/07/11 00:57:14;;;;;;;;;;;15.80;99.90;;;;;;5070578;28;20011;-53
2021/07/11 00:59:46;;;;;;;;;;;15.80;99.90;;;;;;5089879;28;19924;-54
2021/07/11 01:02:18;;;;;;;;;;;15.80;99.90;;;;;;5064714;28;19924;-50
2021/07/11 01:05:02;;;;;;;;;;;15.80;99.90;;;;;;5073583;28;20097;-48
2021/07/11 01:07:33;;;;;;;;;;;15.80;99.90;;;;;;5082662;28;20374;-51
2021/07/11 01:10:04;;;;;;;;;;;15.80;99.90;;;;;;5076556;28;19924;-50
2021/07/11 01:12:35;;;;;;;;;;;15.80;99.90;;;;;;5054759;28;19970;-49
2021/07/11 01:15:04;;;;;;;;;;;15.80;99.90;;;;;;5060476;28;20022;-50
2021/07/11 01:17:32;;;;;;;;;;;15.80;99.90;;;;;;5071490;28;19949;-53
2021/07/11 01:20:08;;;;;;;;;;;15.80;99.90;;;;;;5071218;28;19924;-52
2021/07/11 01:22:47;;;;;;;;;;;15.80;99.90;;;;;;5087838;28;19924;-53
2021/07/11 01:25:20;;;;;;;;;;;15.80;99.90;;;;;;5071889;28;19930;-48
2021/07/11 01:27:51;;;;;;;;;;;15.80;99.90;;;;;;5087784;28;20015;-52
2021/07/11 01:30:20;;;;;;;;;;;15.80;99.90;;;;;;5087410;28;20670;-51
2021/07/11 01:32:54;;;;;;;;;;;15.80;99.90;;;;;;5057346;28;19927;-53
2021/07/11 01:35:23;;;;;;;;;;;15.80;99.90;;;;;;5061698;28;19928;-51
2021/07/11 01:37:54;;;;;;;;;;;15.80;99.90;;;;;;5072590;28;19930;-53
2021/07/11 01:40:21;;;;;;;;;;;15.80;99.90;;;;;;5088093;28;19970;-51
2021/07/11 01:42:53;;;;;;;;;;;15.80;99.90;;;;;;5066709;28;19923;-56
2021/07/11 01:45:27;;;;;;;;;;;15.80;99.90;;;;;;5055204;28;19920;-50
2021/07/11 01:48:02;;;;;;;;;;;15.80;99.90;;;;;;5070710;28;20300;-51
2021/07/11 01:50:35;;;;;;;;;;;15.80;99.90;;;;;;5050369;28;19924;-48
2021/07/11 01:53:02;;;;;;;;;;;15.80;99.90;;;;;;5068905;28;19935;-47
2021/07/11 01:55:29;;;;;;;;;;;15.80;99.90;;;;;;5087702;28;19931;-49
2021/07/11 01:57:59;;;;;;;;;;;15.80;99.90;;;;;;5075404;28;19924;-59
2021/07/11 02:00:28;;;;;;;;;;;15.80;99.90;;;;;;5050776;28;19924;-52
2021/07/11 02:02:58;;;;;;;;;;;15.80;99.90;;;;;;5050818;28;19959;-50
2021/07/11 02:05:38;;;;;;;;;;;15.80;99.90;;;;;;5062729;28;19928;-56
2021/07/11 02:08:13;;;;;;;;;;;15.80;99.90;;;;;;5071601;28;19931;-51
2021/07/11 02:10:40;;;;;;;;;;;15.80;99.90;;;;;;5070395;28;19920;-54
2021/07/11 02:13:43;;;;;;;;;;;15.90;99.90;;;;;;5086394;28;19939;-48
2021/07/11 02:16:33;;;;;;;;;;;15.80;99.90;;;;;;5070685;28;19976;-54
2021/07/11 02:19:03;;;;;;;;;;;15.90;99.90;;;;;;5025343;28;19932;-52
2021/07/11 02:21:35;;;;;;;;;;;15.80;99.90;;;;;;5025709;28;20425;-55
2021/07/11 02:24:03;;;;;;;;;;;15.90;99.90;;;;;;5007161;28;19997;-52
2021/07/11 02:26:40;;;;;;;;;;;15.90;99.90;;;;;;5009012;28;20003;-49
2021/07/11 02:29:10;;;;;;;;;;;15.80;99.90;;;;;;5025014;28;20711;-50
2021/07/11 02:31:48;;;;;;;;;;;15.90;99.90;;;;;;5024951;28;19925;-48
2021/07/11 02:34:15;;;;;;;;;;;15.80;99.90;;;;;;5024851;28;19925;-50
2021/07/11 02:36:51;;;;;;;;;;;15.90;99.90;;;;;;5016562;28;19921;-48
2021/07/11 02:39:21;;;;;;;;;;;15.90;99.90;;;;;;5024563;28;19925;-52
2021/07/11 02:42:03;;;;;;;;;;;15.90;99.90;;;;;;5011352;28;19957;-49
2021/07/11 02:44:34;;;;;;;;;;;15.80;99.90;;;;;;5005483;28;19925;-53
2021/07/11 02:47:13;;;;;;;;;;;15.90;99.90;;;;;;5021694;28;20112;-52
2021/07/11 02:49:49;;;;;;;;;;;15.90;99.90;;;;;;5006072;28;19925;-53
2021/07/11 02:52:20;;;;;;;;;;;15.90;99.90;;;;;;5009599;28;19945;-53
2021/07/11 02:55:00;;;;;;;;;;;15.80;99.90;;;;;;5014388;28;19921;-47
2021/07/11 02:57:31;;;;;;;;;;;15.80;99.90;;;;;;5095313;28;19930;-53
2021/07/11 03:00:09;;;;;;;;;;;15.80;99.90;;;;;;5056447;28;19925;-52
2021/07/11 03:02:44;;;;;;;;;;;15.80;99.90;;;;;;5050352;28;19921;-52
2021/07/11 03:05:19;;;;;;;;;;;15.80;99.90;;;;;;5056262;28;19928;-54
2021/07/11 03:07:50;;;;;;;;;;;15.80;99.90;;;;;;5090641;28;19927;-51
2021/07/11 03:10:21;;;;;;;;;;;15.80;99.90;;;;;;5053568;28;20209;-51
2021/07/11 03:12:55;;;;;;;;;;;15.80;99.90;;;;;;5055625;28;19931;-47
2021/07/11 03:15:24;;;;;;;;;;;15.70;99.90;;;;;;5071538;28;20022;-48
2021/07/11 03:17:53;;;;;;;;;;;15.70;99.90;;;;;;5086044;28;19971;-48
2021/07/11 03:20:28;;;;;;;;;;;15.70;99.90;;;;;;5071490;28;19935;-54
2021/07/11 03:23:02;;;;;;;;;;;15.60;99.90;;;;;;5073493;28;20520;-50
2021/07/11 03:25:31;;;;;;;;;;;15.60;99.90;;;;;;5052486;28;19931;-51
2021/07/11 03:28:07;;;;;;;;;;;15.60;99.90;;;;;;5082428;28;20030;-49
2021/07/11 03:30:38;;;;;;;;;;;15.60;99.90;;;;;;5087012;28;19924;-52
2021/07/11 03:33:06;;;;;;;;;;;15.60;99.90;;;;;;5067428;28;19924;-49
2021/07/11 03:35:35;;;;;;;;;;;15.60;99.90;;;;;;5049244;28;19925;-52
2021/07/11 03:38:05;;;;;;;;;;;15.60;99.90;;;;;;5064833;28;19931;-47
2021/07/11 03:40:43;;;;;;;;;;;15.50;99.90;;;;;;5056988;28;20034;-49
2021/07/11 03:43:16;;;;;;;;;;;15.60;99.90;;;;;;5070691;28;19920;-52
2021/07/11 03:45:45;;;;;;;;;;;15.60;99.90;;;;;;5077181;28;19950;-52
2021/07/11 03:48:14;;;;;;;;;;;15.60;99.90;;;;;;5076604;28;20433;-51
2021/07/11 03:50:52;;;;;;;;;;;15.60;99.90;;;;;;5087529;28;20287;-58
2021/07/11 03:53:20;;;;;;;;;;;15.60;99.90;;;;;;5087773;28;19924;-51
2021/07/11 03:55:52;;;;;;;;;;;15.50;99.90;;;;;;5077809;28;19930;-51
2021/07/11 03:58:23;;;;;;;;;;;15.50;99.90;;;;;;5072361;28;20555;-50
2021/07/11 04:00:54;;;;;;;;;;;15.50;99.90;;;;;;5072604;28;19924;-48
2021/07/11 04:03:25;;;;;;;;;;;15.50;99.90;;;;;;5072175;28;19931;-47
2021/07/11 04:05:55;;;;;;;;;;;15.60;99.90;;;;;;5070601;28;19920;-51
2021/07/11 04:08:24;;;;;;;;;;;15.50;99.90;;;;;;5075946;28;19940;-60
2021/07/11 04:10:57;;;;;;;;;;;15.60;99.90;;;;;;5071390;28;20384;-51
2021/07/11 04:13:29;;;;;;;;;;;15.60;99.90;;;;;;5071077;28;20436;-55
2021/07/11 04:16:02;;;;;;;;;;;15.50;99.90;;;;;;5072171;28;19924;-46
2021/07/11 04:19:01;;;;;;;;;;;15.60;99.90;;;;;;5068678;28;20013;-51
2021/07/11 04:21:33;;;;;;;;;;;15.60;99.90;;;;;;5089598;28;19931;-48
2021/07/11 04:24:03;;;;;;;;;;;15.70;99.90;;;;;;5072459;28;20022;-49
2021/07/11 04:26:39;;;;;;;;;;;15.70;99.90;;;;;;5075104;28;19963;-51
2021/07/11 04:29:12;;;;;;;;;;;15.70;99.90;;;;;;5072129;28;19974;-49
2021/07/11 04:31:43;;;;;;;;;;;15.70;99.90;;;;;;5086635;28;19928;-49
2021/07/11 04:34:13;;;;;;;;;;;15.70;99.90;;;;;;5088325;28;19937;-50
2021/07/11 04:36:39;;;;;;;;;;;15.70;99.90;;;;;;5079866;28;20265;-50
2021/07/11 04:39:14;;;;;;;;;;;15.80;99.90;;;;;;5076046;28;19931;-52
2021/07/11 04:41:46;;;;;;;;;;;15.80;99.90;;;;;;5079551;28;19935;-52
2021/07/11 04:44:18;;;;;;;;;;;15.90;99.90;;;;;;5060826;28;19934;-52
2021/07/11 04:46:46;;;;;;;;;;;15.90;99.90;;;;;;5070917;28;19924;-51
2021/07/11 04:49:21;;;;;;;;;;;15.90;99.90;;;;;;5057422;28;19924;-52
2021/07/11 04:51:49;;;;;;;;;;;16.00;99.90;;;;;;5057101;28;19959;-58
2021/07/11 04:54:16;;;;;;;;;;;16.00;99.90;;;;;;5089951;28;19930;-52
2021/07/11 04:56:45;;;;;;;;;;;16.00;99.90;;;;;;5088908;28;20441;-53
2021/07/11 04:59:15;;;;;;;;;;;16.00;99.90;;;;;;5087560;28;20387;-52
2021/07/11 05:01:47;;;;;;;;;;;16.10;99.90;;;;;;5072929;28;19968;-50
2021/07/11 05:04:17;;;;;;;;;;;16.10;99.90;;;;;;5088019;28;19924;-47
2021/07/11 05:06:59;;;;;;;;;;;16.10;99.90;;;;;;5089321;28;20001;-51
2021/07/11 05:09:29;;;;;;;;;;;16.10;99.90;;;;;;5087858;28;20288;-50
2021/07/11 05:11:57;;;;;;;;;;;16.20;99.90;;;;;;5095917;28;20376;-56
2021/07/11 05:14:27;;;;;;;;;;;16.30;99.90;;;;;;5088987;28;19924;-49
2021/07/11 05:16:57;;;;;;;;;;;16.20;99.90;;;;;;5071747;28;19924;-53
2021/07/11 05:19:28;;;;;;;;;;;16.30;99.90;;;;;;5069624;28;19924;-49
2021/07/11 05:21:59;;;;;;;;;;;16.40;99.90;;;;;;5070089;28;19924;-51
2021/07/11 05:24:38;;;;;;;;;;;16.40;99.90;;;;;;5072175;28;19928;-52
2021/07/11 05:27:10;;;;;;;;;;;16.50;99.90;;;;;;5055146;28;19946;-61
2021/07/11 05:29:37;;;;;;;;;;;16.60;99.90;;;;;;5087830;28;19966;-48
2021/07/11 05:32:06;;;;;;;;;;;16.60;99.90;;;;;;5080933;28;20015;-54
2021/07/11 05:34:40;;;;;;;;;;;16.70;99.90;;;;;;5081586;28;19993;-52
2021/07/11 05:37:08;;;;;;;;;;;16.80;99.90;;;;;;5086665;28;19924;-52
2021/07/11 05:39:38;;;;;;;;;;;17.00;99.90;;;;;;5085713;28;19930;-55
2021/07/11 05:42:09;;;;;;;;;;;17.00;99.90;;;;;;5070367;28;19946;-51
2021/07/11 05:44:40;;;;;;;;;;;17.10;99.90;;;;;;5075130;28;19924;-49
2021/07/11 05:47:15;;;;;;;;;;;17.10;99.90;;;;;;5068948;28;20655;-50
2021/07/11 05:49:46;;;;;;;;;;;17.30;99.90;;;;;;5074777;28;19928;-53
2021/07/11 05:52:18;;;;;;;;;;;17.30;99.90;;;;;;5092687;28;19957;-52
2021/07/11 05:54:50;;;;;;;;;;;17.30;99.90;;;;;;5081716;28;19924;-52
2021/07/11 05:57:17;;;;;;;;;;;17.40;99.90;;;;;;5085654;28;19920;-49
2021/07/11 05:59:49;;;;;;;;;;;17.50;99.90;;;;;;5088395;28;19928;-51
2021/07/11 06:02:27;;;;;;;;;;;17.50;99.90;;;;;;5087222;28;19920;-52
2021/07/11 06:04:56;;;;;;;;;;;17.60;99.90;;;;;;5068647;28;19930;-56
2021/07/11 06:07:31;;;;;;;;;;;17.70;99.90;;;;;;5069442;28;19924;-50
2021/07/11 06:09:59;;;;;;;;;;;17.80;99.90;;;;;;5071580;28;20015;-51
2021/07/11 06:12:25;;;;;;;;;;;17.90;99.90;;;;;;5069590;28;19985;-48
2021/07/11 06:14:57;;;;;;;;;;;17.90;99.90;;;;;;5070554;28;19936;-53
2021/07/11 06:17:32;;;;;;;;;;;17.90;99.90;;;;;;5073406;28;19944;-49
2021/07/11 06:20:06;;;;;;;;;;;18.00;99.90;;;;;;5068672;28;20011;-53
2021/07/11 06:22:35;;;;;;;;;;;18.20;99.90;;;;;;5068075;28;19934;-53
2021/07/11 06:25:07;;;;;;;;;;;18.30;99.90;;;;;;5077925;28;19928;-50
2021/07/11 06:27:44;;;;;;;;;;;18.50;99.90;;;;;;5069029;28;19939;-51
2021/07/11 06:30:15;;;;;;;;;;;18.60;99.90;;;;;;5069228;28;19973;-53
2021/07/11 06:32:45;;;;;;;;;;;18.60;99.90;;;;;;5063386;28;19927;-52
2021/07/11 06:35:21;;;;;;;;;;;18.60;99.90;;;;;;5081326;28;20295;-52
2021/07/11 06:37:50;;;;;;;;;;;18.50;99.90;;;;;;5074466;28;20014;-48
2021/07/11 06:40:24;;;;;;;;;;;18.50;99.90;;;;;;5077492;28;19924;-53
2021/07/11 06:42:55;;;;;;;;;;;18.50;99.90;;;;;;5067141;28;19924;-54
2021/07/11 06:45:27;;;;;;;;;;;18.50;99.90;;;;;;5068651;28;20033;-48
2021/07/11 06:47:54;;;;;;;;;;;18.50;99.90;;;;;;5086975;28;19971;-50
2021/07/11 06:50:20;;;;;;;;;;;18.60;99.90;;;;;;5083568;28;19924;-50
2021/07/11 06:52:51;;;;;;;;;;;18.90;99.90;;;;;;5076456;28;19924;-57
2021/07/11 06:55:18;;;;;;;;;;;19.10;99.90;;;;;;5082795;28;19924;-54
2021/07/11 06:57:47;;;;;;;;;;;19.40;99.90;;;;;;5077904;28;19924;-52
2021/07/11 07:00:17;;;;;;;;;;;19.60;99.90;;;;;;5067183;28;20304;-54
2021/07/11 07:02:46;;;;;;;;;;;19.70;99.90;;;;;;5080239;28;19924;-52
2021/07/11 07:05:13;;;;;;;;;;;20.00;99.90;;;;;;5067408;28;19972;-52
2021/07/11 07:07:44;;;;;;;;;;;20.20;99.90;;;;;;5074785;28;20307;-51
2021/07/11 07:10:22;;;;;;;;;;;20.60;99.90;;;;;;5080737;28;20023;-48
2021/07/11 07:12:51;;;;;;;;;;;20.70;99.90;;;;;;5079294;28;19935;-51
2021/07/11 07:15:26;;;;;;;;;;;20.80;99.90;;;;;;5071045;28;19946;-54
2021/07/11 07:18:03;;;;;;;;;;;20.80;99.90;;;;;;5087089;28;19931;-54
2021/07/11 07:20:33;;;;;;;;;;;20.80;99.90;;;;;;5086140;28;20372;-51
2021/07/11 07:22:59;;;;;;;;;;;20.80;99.90;;;;;;5077651;28;19924;-57
2021/07/11 07:25:31;;;;;;;;;;;21.00;99.90;;;;;;5082449;28;19966;-57
2021/07/11 07:28:00;;;;;;;;;;;21.00;99.90;;;;;;5086022;28;20085;-58
2021/07/11 07:30:38;;;;;;;;;;;21.00;99.90;;;;;;5071947;28;19924;-58
2021/07/11 07:33:05;;;;;;;;;;;20.90;99.90;;;;;;5085872;28;19966;-58
2021/07/11 07:35:34;;;;;;;;;;;21.00;99.90;;;;;;5088652;28;19997;-58
2021/07/11 07:38:05;;;;;;;;;;;20.90;99.90;;;;;;5080220;28;20382;-58
2021/07/11 07:40:43;;;;;;;;;;;21.00;99.90;;;;;;5071461;28;20002;-56
2021/07/11 07:43:13;;;;;;;;;;;21.10;99.90;;;;;;5072056;28;20031;-58
2021/07/11 07:45:42;;;;;;;;;;;21.10;99.90;;;;;;5071326;28;20022;-54
2021/07/11 07:48:14;;;;;;;;;;;21.10;99.90;;;;;;5071342;28;19958;-58
2021/07/11 07:50:43;;;;;;;;;;;21.50;99.90;;;;;;5074354;28;20039;-58
2021/07/11 07:53:15;;;;;;;;;;;22.00;99.90;;;;;;5083823;28;19930;-58
2021/07/11 07:55:46;;;;;;;;;;;22.40;99.90;;;;;;5090867;28;19975;-58
2021/07/11 07:58:20;;;;;;;;;;;22.70;99.90;;;;;;5087944;28;19924;-57
2021/07/11 08:00:50;;;;;;;;;;;23.00;99.90;;;;;;5089673;28;19920;-58
2021/07/11 08:03:19;;;;;;;;;;;23.30;99.90;;;;;;5090412;28;19923;-57
2021/07/11 08:05:52;;;;;;;;;;;23.50;99.90;;;;;;5088077;28;19931;-58
2021/07/11 08:08:22;;;;;;;;;;;23.60;99.10;;;;;;5084782;28;19924;-58
2021/07/11 08:10:54;;;;;;;;;;;23.80;96.30;;;;;;5063216;28;19928;-58
2021/07/11 08:13:23;;;;;;;;;;;24.10;98.90;;;;;;5093625;28;19955;-58
2021/07/11 08:15:49;;;;;;;;;;;24.40;97.20;;;;;;5090725;28;19924;-58
2021/07/11 08:18:20;;;;;;;;;;;24.60;93.60;;;;;;5097067;28;19973;-57
2021/07/11 08:20:46;;;;;;;;;;;24.60;90.80;;;;;;5072806;28;19930;-58
2021/07/11 08:23:29;;;;;;;;;;;24.90;94.70;;;;;;5090723;28;19939;-58
2021/07/11 08:26:01;;;;;;;;;;;25.10;93.90;;;;;;5090715;28;20338;-58
2021/07/11 08:28:33;;;;;;;;;;;25.30;92.20;;;;;;5089578;28;19920;-59
2021/07/11 08:31:02;;;;;;;;;;;25.40;90.50;;;;;;5088958;28;19974;-58
2021/07/11 08:33:31;;;;;;;;;;;25.60;92.70;;;;;;5090900;28;19931;-59
2021/07/11 08:36:05;;;;;;;;;;;25.70;89.30;;;;;;5091409;28;19931;-58
2021/07/11 08:38:31;;;;;;;;;;;25.40;84.50;;;;;;5090627;28;19924;-59
2021/07/11 08:40:58;;;;;;;;;;;25.40;84.40;;;;;;5086758;28;19924;-58
2021/07/11 08:43:29;;;;;;;;;;;25.80;87.20;;;;;;5089465;28;19924;-58
2021/07/11 08:46:01;;;;;;;;;;;26.10;84.20;;;;;;5089712;28;19969;-58
2021/07/11 08:48:29;;;;;;;;;;;26.10;81.20;;;;;;5072311;28;19924;-59
2021/07/11 08:51:03;;;;;;;;;;;25.80;78.30;;;;;;5069378;28;20064;-57
2021/07/11 08:53:34;;;;;;;;;;;25.90;75.20;;;;;;5071706;28;19924;-58
2021/07/11 08:56:07;;;;;;;;;;;25.80;78.60;;;;;;5070105;28;19934;-58
2021/07/11 08:58:43;;;;;;;;;;;26.50;79.10;;;;;;5072130;28;19947;-57
2021/07/11 09:01:13;;;;;;;;;;;26.50;72.10;;;;;;5078447;28;19924;-57
2021/07/11 09:04:03;;;;;;;;;;;26.10;73.40;;;;;;5072952;28;20010;-58
2021/07/11 09:06:42;;;;;;;;;;;25.50;74.50;;;;;;5070375;28;19931;-58
2021/07/11 09:09:08;;;;;;;;;;;26.00;75.10;;;;;;5070760;28;20406;-57
2021/07/11 09:11:48;;;;;;;;;;;25.90;77.00;;;;;;5069635;28;19924;-58
2021/07/11 09:14:21;;;;;;;;;;;26.00;77.60;;;;;;5090082;28;20446;-58
2021/07/11 09:16:54;;;;;;;;;;;25.90;75.00;;;;;;5089866;28;19931;-58
2021/07/11 09:19:34;;;;;;;;;;;25.90;76.60;;;;;;5090145;28;19930;-58
2021/07/11 09:22:03;;;;;;;;;;;25.60;77.30;;;;;;5070525;28;19928;-58
2021/07/11 09:24:33;;;;;;;;;;;25.40;79.40;;;;;;5070068;28;19964;-57
2021/07/11 09:27:09;;;;;;;;;;;24.80;81.40;;;;;;5070832;28;19924;-57
2021/07/11 09:29:40;;;;;;;;;;;24.80;85.90;;;;;;5070662;28;19931;-58
2021/07/11 09:32:24;;;;;;;;;;;24.70;85.90;;;;;;5076044;28;20376;-58
2021/07/11 09:34:53;;;;;;;;;;;24.70;87.00;;;;;;5088242;28;19930;-57
2021/07/11 09:37:24;;;;;;;;;;;24.90;90.20;;;;;;5090906;28;19927;-58
2021/07/11 09:39:58;;;;;;;;;;;24.80;90.60;;;;;;5072667;28;20314;-57
2021/07/11 09:42:40;;;;;;;;;;;25.10;86.80;;;;;;5088036;28;19924;-58
2021/07/11 09:45:13;;;;;;;;;;;24.90;85.40;;;;;;5092622;28;20026;-57
2021/07/11 09:47:43;;;;;;;;;;;25.00;83.20;;;;;;5089861;28;19942;-58
2021/07/11 09:50:13;;;;;;;;;;;24.80;86.00;;;;;;5089854;28;19928;-57
2021/07/11 09:52:45;;;;;;;;;;;24.90;86.00;;;;;;5076600;28;19920;-57
2021/07/11 09:55:13;;;;;;;;;;;24.90;86.70;;;;;;5068864;28;20403;-57
2021/07/11 09:57:46;;;;;;;;;;;24.90;86.20;;;;;;5069516;28;20383;-57
2021/07/11 10:00:22;;;;;;;;;;;24.90;85.80;;;;;;5071984;28;20456;-58
2021/07/11 10:02:53;;;;;;;;;;;25.00;85.10;;;;;;5072505;28;19924;-57
2021/07/11 10:05:20;;;;;;;;;;;24.60;87.70;;;;;;5075371;28;19924;-50
2021/07/11 10:07:49;;;;;;;;;;;24.80;90.50;;;;;;5088699;28;19967;-50
2021/07/11 10:10:24;;;;;;;;;;;24.80;91.80;;;;;;5083450;28;20011;-52
2021/07/11 10:12:57;;;;;;;;;;;25.20;87.10;;;;;;5087595;28;20636;-53
2021/07/11 10:15:30;;;;;;;;;;;25.40;87.50;;;;;;5086716;28;19924;-54
2021/07/11 10:18:00;;;;;;;;;;;25.50;88.70;;;;;;5094170;28;19931;-54
2021/07/11 10:20:47;;;;;;;;;;;25.80;84.40;;;;;;5088023;28;20414;-50
2021/07/11 10:23:33;;;;;;;;;;;26.10;84.90;;;;;;5088940;28;20374;-53
2021/07/11 10:26:13;;;;;;;;;;;26.20;85.80;;;;;;5081005;28;19924;-54
2021/07/11 10:28:43;;;;;;;;;;;26.40;81.90;;;;;;5088178;28;19931;-49
2021/07/11 10:31:20;;;;;;;;;;;26.70;83.50;;;;;;5088578;28;19924;-53
2021/07/11 10:33:49;;;;;;;;;;;26.40;80.90;;;;;;5070987;28;20257;-53
2021/07/11 10:36:28;;;;;;;;;;;26.50;79.70;;;;;;5071039;28;19924;-52
2021/07/11 10:38:55;;;;;;;;;;;26.20;77.00;;;;;;5068474;28;19921;-52
2021/07/11 10:41:28;;;;;;;;;;;25.80;78.30;;;;;;5067818;28;20296;-54
2021/07/11 10:44:12;;;;;;;;;;;25.80;82.20;;;;;;5067651;28;20396;-52
2021/07/11 10:46:55;;;;;;;;;;;25.50;82.20;;;;;;5073003;28;19935;-51
2021/07/11 10:49:23;;;;;;;;;;;25.50;82.20;;;;;;5069933;28;19931;-51
2021/07/11 10:51:59;;;;;;;;;;;25.00;82.60;;;;;;5068294;28;19924;-55
2021/07/11 10:54:29;;;;;;;;;;;25.00;90.30;;;;;;5079266;28;19924;-53
2021/07/11 10:57:18;;;;;;;;;;;25.00;89.20;;;;;;5070804;28;19931;-49
2021/07/11 10:59:49;;;;;;;;;;;24.70;92.30;;;;;;5078739;28;20316;-52
2021/07/11 11:02:23;;;;;;;;;;;24.80;91.00;;;;;;5071638;28;19966;-49
2021/07/11 11:05:16;;;;;;;;;;;24.70;93.10;;;;;;5087583;28;19930;-53
2021/07/11 11:07:44;;;;;;;;;;;24.60;91.80;;;;;;5090274;28;19965;-53
2021/07/11 11:10:17;;;;;;;;;;;24.50;93.60;;;;;;5087997;28;19931;-52
2021/07/11 11:13:02;;;;;;;;;;;24.40;92.40;;;;;;5084144;28;19928;-53
2021/07/11 11:15:51;;;;;;;;;;;24.30;95.40;;;;;;5087424;28;19928;-53
2021/07/11 11:18:29;;;;;;;;;;;24.10;95.20;;;;;;5090743;28;19927;-51
2021/07/11 11:21:01;;;;;;;;;;;24.10;97.50;;;;;;5066490;28;20372;-53
2021/07/11 11:23:40;;;;;;;;;;;24.00;98.80;;;;;;5066774;28;20314;-54
2021/07/11 11:26:20;;;;;;;;;;;24.00;97.10;;;;;;5066777;28;19931;-53
2021/07/11 11:28:55;;;;;;;;;;;24.00;98.60;;;;;;5067538;28;19932;-52
2021/07/11 11:31:36;;;;;;;;;;;23.90;98.30;;;;;;5066967;28;19924;-51
2021/07/11 11:34:08;;;;;;;;;;;23.80;98.70;;;;;;5073136;28;19928;-53
2021/07/11 11:36:44;;;;;;;;;;;23.70;99.60;;;;;;5087386;28;19924;-47
2021/07/11 11:39:19;;;;;;;;;;;23.50;99.90;;;;;;5086559;28;19969;-50
2021/07/11 11:41:48;;;;;;;;;;;23.50;99.90;;;;;;5067336;28;19924;-49
2021/07/11 11:44:20;;;;;;;;;;;23.60;99.90;;;;;;5079543;28;19931;-50
2021/07/11 11:46:56;;;;;;;;;;;23.40;99.90;;;;;;5067204;28;19935;-52
2021/07/11 11:49:27;;;;;;;;;;;23.40;99.90;;;;;;5067569;28;19920;-47
2021/07/11 11:52:00;;;;;;;;;;;23.30;99.90;;;;;;5067865;28;19944;-48
2021/07/11 11:54:48;;;;;;;;;;;23.30;99.90;;;;;;5068233;28;19930;-49
2021/07/11 11:57:38;;;;;;;;;;;23.40;99.90;;;;;;5087421;28;19924;-49
2021/07/11 12:00:14;;;;;;;;;;;23.30;99.90;;;;;;5081940;28;20006;-51
2021/07/11 12:02:45;;;;;;;;;;;23.20;99.90;;;;;;5090609;28;20051;-50
2021/07/11 12:05:21;;;;;;;;;;;23.30;99.90;;;;;;5087127;28;19923;-51
2021/07/11 12:07:56;;;;;;;;;;;23.30;99.90;;;;;;5071699;28;20015;-47
2021/07/11 12:10:29;;;;;;;;;;;23.30;99.90;;;;;;5069892;28;20380;-50
2021/07/11 12:12:59;;;;;;;;;;;23.20;99.90;;;;;;5079465;28;19931;-51
2021/07/11 12:15:38;;;;;;;;;;;23.40;99.90;;;;;;5083442;28;20380;-50
2021/07/11 12:18:07;;;;;;;;;;;23.50;99.90;;;;;;5094123;28;19924;-47
2021/07/11 12:20:41;;;;;;;;;;;23.70;99.90;;;;;;5083560;28;20388;-48
2021/07/11 12:23:19;;;;;;;;;;;23.80;99.90;;;;;;5071145;28;20405;-52
2021/07/11 12:26:05;;;;;;;;;;;24.00;99.90;;;;;;5082646;28;19924;-51
2021/07/11 12:28:39;;;;;;;;;;;24.10;99.90;;;;;;5086358;28;20302;-53
2021/07/11 12:31:20;;;;;;;;;;;24.30;99.90;;;;;;5090862;28;20331;-47
2021/07/11 12:33:56;;;;;;;;;;;24.60;99.90;;;;;;5091378;28;20388;-50
2021/07/11 12:36:29;;;;;;;;;;;24.90;99.90;;;;;;5091097;28;20388;-48
2021/07/11 12:39:19;;;;;;;;;;;25.30;99.90;;;;;;5090791;28;20023;-50
2021/07/11 12:41:48;;;;;;;;;;;25.50;97.90;;;;;;5091133;28;19924;-49
2021/07/11 12:44:19;;;;;;;;;;;25.90;99.50;;;;;;5070809;28;20643;-50
2021/07/11 12:47:04;;;;;;;;;;;26.30;97.30;;;;;;5085414;28;19930;-54
2021/07/11 12:49:38;;;;;;;;;;;27.00;93.40;;;;;;5091341;28;20405;-50
2021/07/11 12:52:14;;;;;;;;;;;27.40;89.30;;;;;;5091566;28;19955;-50
2021/07/11 12:54:49;;;;;;;;;;;27.80;89.20;;;;;;5082726;28;19969;-58
2021/07/11 12:57:24;;;;;;;;;;;28.20;78.60;;;;;;5092948;28;19928;-58
2021/07/11 12:59:54;;;;;;;;;;;28.30;78.50;;;;;;5085364;28;19924;-57
2021/07/11 13:02:33;;;;;;;;;;;27.90;72.80;;;;;;5071168;28;19932;-58
2021/07/11 13:05:05;;;;;;;;;;;28.40;69.30;;;;;;5088032;28;20307;-57
2021/07/11 13:07:38;;;;;;;;;;;28.70;73.80;;;;;;5080464;28;19928;-58
2021/07/11 13:10:12;;;;;;;;;;;28.90;71.70;;;;;;5090550;28;19924;-59
2021/07/11 13:12:42;;;;;;;;;;;28.80;68.30;;;;;;5076372;28;19931;-59
2021/07/11 13:15:17;;;;;;;;;;;28.60;66.00;;;;;;5071329;28;19931;-58
2021/07/11 13:17:49;;;;;;;;;;;28.50;68.80;;;;;;5077479;28;20334;-57
2021/07/11 13:20:17;;;;;;;;;;;28.70;66.70;;;;;;5090278;28;19923;-59
2021/07/11 13:22:46;;;;;;;;;;;28.90;66.60;;;;;;5080341;28;19939;-60
2021/07/11 13:25:15;;;;;;;;;;;29.20;66.30;;;;;;5069871;28;19932;-57
2021/07/11 13:27:43;;;;;;;;;;;29.60;65.80;;;;;;5051195;28;19951;-58
2021/07/11 13:30:17;;;;;;;;;;;29.80;64.20;;;;;;5080362;28;19924;-56
2021/07/11 13:32:52;;;;;;;;;;;30.10;64.40;;;;;;5084537;28;19924;-59
2021/07/11 13:35:22;;;;;;;;;;;30.50;61.80;;;;;;5067855;28;19924;-58
2021/07/11 13:37:52;;;;;;;;;;;30.60;60.80;;;;;;5068999;28;20330;-58
2021/07/11 13:40:26;;;;;;;;;;;30.60;60.40;;;;;;5069236;28;19931;-57
2021/07/11 13:42:59;;;;;;;;;;;30.50;61.40;;;;;;5051815;28;19931;-58
2021/07/11 13:45:33;;;;;;;;;;;30.50;62.80;;;;;;5075174;28;19983;-57
2021/07/11 13:48:00;;;;;;;;;;;30.90;60.10;;;;;;5079314;28;20006;-57
2021/07/11 13:50:26;;;;;;;;;;;31.20;60.60;;;;;;5087980;28;19924;-58
2021/07/11 13:52:57;;;;;;;;;;;31.40;59.90;;;;;;5071443;28;19925;-56
2021/07/11 13:55:23;;;;;;;;;;;31.50;56.30;;;;;;5068331;28;19924;-57
2021/07/11 13:57:50;;;;;;;;;;;31.20;54.60;;;;;;5084107;28;19965;-59
2021/07/11 14:00:22;;;;;;;;;;;30.80;56.70;;;;;;5075883;28;19924;-58
2021/07/11 14:02:50;;;;;;;;;;;30.50;57.10;;;;;;5068282;28;19924;-59
2021/07/11 14:05:24;;;;;;;;;;;30.10;59.30;;;;;;5069496;28;20026;-58
2021/07/11 14:07:54;;;;;;;;;;;30.00;59.90;;;;;;5068226;28;20019;-58
2021/07/11 14:10:20;;;;;;;;;;;30.30;58.90;;;;;;5068420;28;20284;-59
2021/07/11 14:12:50;;;;;;;;;;;29.50;57.30;;;;;;5068789;28;19928;-57
2021/07/11 14:15:17;;;;;;;;;;;29.00;60.20;;;;;;5068389;28;20438;-57
2021/07/11 14:17:46;;;;;;;;;;;28.70;62.40;;;;;;5068024;28;19932;-57
2021/07/11 14:20:14;;;;;;;;;;;28.20;62.40;;;;;;5078166;28;20375;-57
2021/07/11 14:22:49;;;;;;;;;;;27.80;63.70;;;;;;5087670;28;20497;-57
2021/07/11 14:25:19;;;;;;;;;;;27.50;64.60;;;;;;5068313;28;19924;-58
2021/07/11 14:27:45;;;;;;;;;;;28.20;67.70;;;;;;5068016;28;20284;-56
2021/07/11 14:30:14;;;;;;;;;;;29.10;64.90;;;;;;5069382;28;19925;-57
2021/07/11 14:32:45;;;;;;;;;;;29.80;62.60;;;;;;5068003;28;20376;-54
2021/07/11 14:35:14;;;;;;;;;;;30.00;59.70;;;;;;5068291;28;19928;-59
2021/07/11 14:37:43;;;;;;;;;;;29.90;60.70;;;;;;5065866;28;20453;-57
2021/07/11 14:40:09;;;;;;;;;;;29.30;61.10;;;;;;5069204;28;20407;-57
2021/07/11 14:42:41;;;;;;;;;;;29.00;63.20;;;;;;5068816;28;20332;-57
2021/07/11 14:45:14;;;;;;;;;;;28.40;63.60;;;;;;5070939;28;19947;-58
2021/07/11 14:47:43;;;;;;;;;;;27.90;65.10;;;;;;5076317;28;19951;-47